Time;durP1;ratioP1;P1;durP2;ratioP2;P2;SDS_P1;SDS_P2;PMS_P1;PMS_P2;Temp;Humidity;BMP_temperature;BMP_pressure;BME280_temperature;BME280_humidity;BME280_pressure;Samples;Min_cycle;Max_cycle;Signal;HPM_P1;HPM_P2
2022/09/18 00:01:17;;;;;;;;;5.00;5.00;;;;;-144.76;100.00;60493.00;5044565;28;45133;-80
2022/09/18 00:03:42;;;;;;;;;5.00;5.00;;;;;-144.76;100.00;60493.00;5017465;28;45300;-79
2022/09/18 00:06:13;;;;;;;;;5.00;4.00;;;;;-144.76;100.00;60493.00;5038717;28;44985;-80
2022/09/18 00:08:39;;;;;;;;;3.50;3.00;;;;;-144.76;100.00;60493.00;5031405;28;45379;-79
2022/09/18 00:11:06;;;;;;;;;4.00;4.00;;;;;-144.76;100.00;60493.00;5031815;28;45176;-80
2022/09/18 00:13:36;;;;;;;;;4.75;4.00;;;;;-144.76;100.00;60493.00;5031718;28;44918;-80
2022/09/18 00:16:02;;;;;;;;;4.00;3.50;;;;;-144.76;100.00;60493.00;5033735;28;45204;-80
2022/09/18 00:18:27;;;;;;;;;5.00;4.50;;;;;-144.76;100.00;60493.00;5035037;28;45131;-79
2022/09/18 00:20:53;;;;;;;;;4.50;4.00;;;;;-144.76;100.00;60493.00;5042155;28;45208;-80
2022/09/18 00:23:18;;;;;;;;;3.00;3.00;;;;;-144.76;100.00;60493.00;5049315;28;45201;-80
2022/09/18 00:25:43;;;;;;;;;3.00;3.00;;;;;-144.76;100.00;60493.00;5031199;28;45682;-79
2022/09/18 00:28:09;;;;;;;;;3.50;3.50;;;;;-144.76;100.00;60493.00;5030732;28;45458;-79
2022/09/18 00:30:34;;;;;;;;;5.75;4.75;;;;;-144.76;100.00;60493.00;5031472;28;46709;-78
2022/09/18 00:32:59;;;;;;;;;5.00;5.00;;;;;-144.76;100.00;60493.00;5030314;28;59451;-79
2022/09/18 00:35:24;;;;;;;;;3.00;3.00;;;;;-144.76;100.00;60493.00;5031564;28;44983;-80
2022/09/18 00:37:50;;;;;;;;;5.00;5.00;;;;;-144.76;100.00;60493.00;5031751;28;57193;-79
2022/09/18 00:40:15;;;;;;;;;4.25;4.00;;;;;-144.76;100.00;60493.00;5035132;28;45035;-80
2022/09/18 00:42:42;;;;;;;;;3.75;3.75;;;;;-144.76;100.00;60493.00;5030464;28;45223;-78
2022/09/18 00:45:09;;;;;;;;;5.00;4.00;;;;;-144.76;100.00;60493.00;5033054;28;45738;-79
2022/09/18 00:47:40;;;;;;;;;4.25;3.50;;;;;-144.76;100.00;60493.00;5030966;28;45307;-78
2022/09/18 00:50:17;;;;;;;;;4.00;4.00;;;;;-144.76;100.00;60493.00;5035677;28;45161;-79
2022/09/18 00:53:05;;;;;;;;;4.00;3.25;;;;;-144.76;100.00;60493.00;5038999;28;44887;-80
2022/09/18 00:55:36;;;;;;;;;3.75;3.75;;;;;-144.76;100.00;60493.00;5030896;28;45693;-80
2022/09/18 00:58:03;;;;;;;;;3.00;3.00;;;;;-144.76;100.00;60493.00;5030342;28;45300;-79
2022/09/18 01:00:29;;;;;;;;;4.00;4.00;;;;;-144.76;100.00;60493.00;5039882;28;45145;-79
2022/09/18 01:03:00;;;;;;;;;3.00;3.00;;;;;-144.76;100.00;60493.00;5038939;28;45042;-79
2022/09/18 01:05:32;;;;;;;;;4.50;3.75;;;;;-144.76;100.00;60493.00;5031074;28;47677;-79
2022/09/18 01:08:24;;;;;;;;;3.50;3.25;;;;;-144.76;100.00;60493.00;5034349;28;45136;-79
2022/09/18 01:11:18;;;;;;;;;4.00;3.50;;;;;-144.76;100.00;60493.00;5053166;28;45081;-78
2022/09/18 01:13:58;;;;;;;;;3.00;3.00;;;;;-144.76;100.00;60493.00;5050956;28;45105;-79
2022/09/18 01:16:35;;;;;;;;;2.50;2.00;;;;;-144.76;100.00;60493.00;5034526;28;45167;-78
2022/09/18 01:19:27;;;;;;;;;4.50;4.00;;;;;-144.76;100.00;60493.00;5035879;28;45208;-78
2022/09/18 01:22:34;;;;;;;;;3.25;2.75;;;;;-144.76;100.00;60493.00;5034030;28;44992;-79
2022/09/18 01:25:09;;;;;;;;;4.00;4.00;;;;;-144.76;100.00;60493.00;5042599;28;45059;-79
2022/09/18 01:27:39;;;;;;;;;4.75;4.00;;;;;-144.76;100.00;60493.00;5033749;28;46021;-79
2022/09/18 01:30:08;;;;;;;;;5.00;4.50;;;;;-144.76;100.00;60493.00;5019772;28;50949;-79
2022/09/18 01:32:55;;;;;;;;;3.00;3.00;;;;;-144.76;100.00;60493.00;5045466;28;44983;-79
2022/09/18 01:35:21;;;;;;;;;4.00;3.50;;;;;-144.76;100.00;60493.00;5040951;28;45117;-80
2022/09/18 01:37:49;;;;;;;;;4.00;4.00;;;;;-144.76;100.00;60493.00;5043896;28;45522;-80
2022/09/18 01:40:27;;;;;;;;;4.75;3.75;;;;;-144.76;100.00;60493.00;5038136;28;45126;-78
2022/09/18 01:42:57;;;;;;;;;4.50;4.50;;;;;-144.76;100.00;60493.00;5047068;28;44995;-80
2022/09/18 01:45:28;;;;;;;;;4.00;4.00;;;;;-144.76;100.00;60493.00;5064524;28;44934;-82
2022/09/18 01:47:58;;;;;;;;;4.00;4.00;;;;;-144.76;100.00;60493.00;5073101;28;45603;-82
2022/09/18 01:50:29;;;;;;;;;5.00;3.75;;;;;-144.76;100.00;60493.00;5038897;28;45445;-81
2022/09/18 01:53:04;;;;;;;;;4.00;4.00;;;;;-144.76;100.00;60493.00;5033764;28;45097;-81
2022/09/18 01:55:33;;;;;;;;;1.50;1.50;;;;;-144.76;100.00;60493.00;5041189;28;44976;-82
2022/09/18 01:58:21;;;;;;;;;3.00;3.00;;;;;-144.76;100.00;60493.00;5033080;28;45665;-81
2022/09/18 02:00:53;;;;;;;;;4.50;3.25;;;;;-144.76;100.00;60493.00;5050988;28;45259;-81
2022/09/18 02:03:32;;;;;;;;;3.00;3.00;;;;;-144.76;100.00;60493.00;5052544;28;45175;-81
2022/09/18 02:06:03;;;;;;;;;5.00;5.00;;;;;-144.76;100.00;60493.00;5048015;28;45076;-80
2022/09/18 02:08:53;;;;;;;;;4.00;4.00;;;;;-144.76;100.00;60493.00;5037969;28;45717;-82
2022/09/18 02:11:19;;;;;;;;;4.00;4.00;;;;;-144.76;100.00;60493.00;5050078;28;45479;-82
2022/09/18 02:14:04;;;;;;;;;3.50;3.50;;;;;-144.76;100.00;60493.00;5043626;28;45141;-80
2022/09/18 02:16:52;;;;;;;;;3.25;3.25;;;;;-144.76;100.00;60493.00;5033818;28;45175;-82
2022/09/18 02:19:43;;;;;;;;;4.00;3.00;;;;;-144.76;100.00;60493.00;5045496;28;45813;-82
2022/09/18 02:22:12;;;;;;;;;3.25;3.25;;;;;-144.76;100.00;60493.00;5015248;28;45115;-81
2022/09/18 02:24:39;;;;;;;;;3.00;2.25;;;;;-144.76;100.00;60493.00;5032448;28;45081;-80
2022/09/18 02:27:07;;;;;;;;;3.00;3.00;;;;;-144.76;100.00;60493.00;5035169;28;45026;-79
2022/09/18 02:29:33;;;;;;;;;3.00;3.00;;;;;-144.76;100.00;60493.00;5049328;28;46056;-81
2022/09/18 02:31:59;;;;;;;;;3.00;3.00;;;;;-144.76;100.00;60493.00;5032491;28;45119;-78
2022/09/18 02:34:26;;;;;;;;;4.00;2.00;;;;;-144.76;100.00;60493.00;5033300;28;45171;-80
2022/09/18 02:37:18;;;;;;;;;2.00;2.00;;;;;-144.76;100.00;60493.00;5040483;28;44995;-80
2022/09/18 02:39:51;;;;;;;;;3.75;3.75;;;;;-144.76;100.00;60493.00;5042290;28;45859;-81
2022/09/18 02:42:36;;;;;;;;;4.00;3.25;;;;;-144.76;100.00;60493.00;5031901;28;45067;-81
2022/09/18 02:45:08;;;;;;;;;3.00;3.00;;;;;-144.76;100.00;60493.00;5037660;28;45069;-79
2022/09/18 02:48:01;;;;;;;;;4.00;3.00;;;;;-144.76;100.00;60493.00;5045921;28;45195;-79
2022/09/18 02:50:46;;;;;;;;;2.75;2.75;;;;;-144.76;100.00;60493.00;5027405;28;45353;-79
2022/09/18 02:53:55;;;;;;;;;2.00;2.00;;;;;-144.76;100.00;60493.00;5042292;28;50815;-79
2022/09/18 02:56:41;;;;;;;;;4.00;4.00;;;;;-144.76;100.00;60493.00;5051836;28;45184;-82
2022/09/18 02:59:23;;;;;;;;;5.00;4.00;;;;;-144.76;100.00;60493.00;5035062;28;44950;-81
2022/09/18 03:01:49;;;;;;;;;3.00;3.00;;;;;-144.76;100.00;60493.00;5015049;28;45985;-80
2022/09/18 03:04:21;;;;;;;;;3.00;2.50;;;;;-144.76;100.00;60493.00;5032595;28;45141;-79
2022/09/18 03:06:46;;;;;;;;;3.75;2.75;;;;;-144.76;100.00;60493.00;5036683;28;45105;-80
2022/09/18 03:09:12;;;;;;;;;4.00;3.25;;;;;-144.76;100.00;60493.00;5040215;28;44950;-79
2022/09/18 03:11:38;;;;;;;;;2.00;2.00;;;;;-144.76;100.00;60493.00;5036233;28;45987;-80
2022/09/18 03:14:03;;;;;;;;;4.00;4.00;;;;;-144.76;100.00;60493.00;5035490;28;45199;-79
2022/09/18 03:16:28;;;;;;;;;3.00;2.50;;;;;-144.76;100.00;60493.00;5039375;28;45262;-80
2022/09/18 03:18:54;;;;;;;;;3.25;3.25;;;;;-144.76;100.00;60493.00;5032694;28;45140;-79
2022/09/18 03:21:25;;;;;;;;;3.67;3.67;;;;;-144.76;100.00;60493.00;5047621;28;58442;-79
2022/09/18 03:23:50;;;;;;;;;2.25;2.25;;;;;-144.76;100.00;60493.00;5046028;28;45018;-79
2022/09/18 03:26:16;;;;;;;;;3.50;3.00;;;;;-144.76;100.00;60493.00;5041931;28;45302;-79
2022/09/18 03:28:44;;;;;;;;;2.00;2.00;;;;;-144.76;100.00;60493.00;5040050;28;45089;-78
2022/09/18 03:31:10;;;;;;;;;2.50;2.50;;;;;-144.76;100.00;60493.00;5035816;28;45119;-80
2022/09/18 03:33:36;;;;;;;;;2.00;2.00;;;;;-144.76;100.00;60493.00;5060090;28;44939;-79
2022/09/18 03:36:04;;;;;;;;;2.75;2.50;;;;;-144.76;100.00;60493.00;5043282;28;45146;-81
2022/09/18 03:38:30;;;;;;;;;3.00;1.75;;;;;-144.76;100.00;60493.00;5032468;28;45181;-80
2022/09/18 03:40:55;;;;;;;;;2.00;2.00;;;;;-144.76;100.00;60493.00;5048418;28;45121;-81
2022/09/18 03:43:21;;;;;;;;;3.00;3.00;;;;;-144.76;100.00;60493.00;5048069;28;55410;-79
2022/09/18 03:45:46;;;;;;;;;2.00;2.00;;;;;-144.76;100.00;60493.00;5036791;28;59248;-79
2022/09/18 03:48:11;;;;;;;;;3.00;3.00;;;;;-144.76;100.00;60493.00;5038255;28;57379;-81
2022/09/18 03:50:36;;;;;;;;;2.00;2.00;;;;;-144.76;100.00;60493.00;5036862;28;60494;-78
2022/09/18 03:53:02;;;;;;;;;3.00;2.00;;;;;-144.76;100.00;60493.00;5030221;28;45021;-81
2022/09/18 03:55:27;;;;;;;;;3.00;3.00;;;;;-144.76;100.00;60493.00;5042481;28;44840;-79
2022/09/18 03:57:52;;;;;;;;;2.00;2.00;;;;;-144.76;100.00;60493.00;5041385;28;45242;-78
2022/09/18 04:00:18;;;;;;;;;2.67;2.67;;;;;-144.76;100.00;60493.00;5041990;28;62358;-79
2022/09/18 04:02:44;;;;;;;;;2.75;2.75;;;;;-144.76;100.00;60493.00;5040704;28;45115;-79
2022/09/18 04:05:09;;;;;;;;;4.25;4.00;;;;;-144.76;100.00;60493.00;5044945;28;45460;-78
2022/09/18 04:07:35;;;;;;;;;4.50;2.50;;;;;-144.76;100.00;60493.00;5032618;28;45075;-80
2022/09/18 04:10:01;;;;;;;;;2.25;2.00;;;;;-144.76;100.00;60493.00;5036674;28;45118;-79
2022/09/18 04:12:26;;;;;;;;;3.00;2.00;;;;;-144.76;100.00;60493.00;5020270;28;45183;-81
2022/09/18 04:14:51;;;;;;;;;3.00;3.00;;;;;-144.76;100.00;60493.00;5044294;28;45152;-80
2022/09/18 04:17:17;;;;;;;;;2.00;2.00;;;;;-144.76;100.00;60493.00;5037289;28;45007;-81
2022/09/18 04:19:42;;;;;;;;;2.00;2.00;;;;;-144.76;100.00;60493.00;5049438;28;56456;-81
2022/09/18 04:22:08;;;;;;;;;2.00;2.00;;;;;-144.76;100.00;60493.00;5045967;28;55527;-81
2022/09/18 04:24:35;;;;;;;;;3.00;2.25;;;;;-144.76;100.00;60493.00;5044369;28;49033;-81
2022/09/18 04:27:00;;;;;;;;;2.00;2.00;;;;;-144.76;100.00;60493.00;5063747;28;45385;-81
2022/09/18 04:29:25;;;;;;;;;2.25;2.00;;;;;-144.76;100.00;60493.00;5068557;28;45505;-80
2022/09/18 04:31:51;;;;;;;;;2.75;2.75;;;;;-144.76;100.00;60493.00;5049226;28;45073;-80
2022/09/18 04:34:16;;;;;;;;;2.33;2.33;;;;;-144.76;100.00;60493.00;5051198;28;45161;-80
2022/09/18 04:36:41;;;;;;;;;2.00;2.00;;;;;-144.76;100.00;60493.00;5028728;28;45554;-81
2022/09/18 04:39:07;;;;;;;;;3.00;3.00;;;;;-144.76;100.00;60493.00;5047506;28;45606;-80
2022/09/18 04:41:32;;;;;;;;;3.00;3.00;;;;;-144.76;100.00;60493.00;5046852;28;61733;-80
2022/09/18 04:43:57;;;;;;;;;3.67;3.67;;;;;-144.76;100.00;60493.00;5068208;28;45023;-81
2022/09/18 04:46:22;;;;;;;;;2.50;2.00;;;;;-144.76;100.00;60493.00;5047050;28;44913;-80
2022/09/18 04:48:48;;;;;;;;;2.00;2.00;;;;;-144.76;100.00;60493.00;5055965;28;45196;-80
2022/09/18 04:51:14;;;;;;;;;4.25;3.25;;;;;-144.76;100.00;60493.00;5050189;28;44978;-80
2022/09/18 04:53:40;;;;;;;;;2.25;2.25;;;;;-144.76;100.00;60493.00;5050333;28;45125;-80
2022/09/18 04:56:06;;;;;;;;;2.75;2.75;;;;;-144.76;100.00;60493.00;5047661;28;44960;-80
2022/09/18 04:58:31;;;;;;;;;3.25;3.00;;;;;-144.76;100.00;60493.00;5049384;28;45072;-80
2022/09/18 05:00:57;;;;;;;;;3.00;3.00;;;;;-144.76;100.00;60493.00;5049741;28;45171;-80
2022/09/18 05:03:22;;;;;;;;;2.00;1.50;;;;;-144.76;100.00;60493.00;5056988;28;45165;-79
2022/09/18 05:05:48;;;;;;;;;3.33;2.00;;;;;-144.76;100.00;60493.00;5069238;28;65614;-81
2022/09/18 05:08:14;;;;;;;;;3.75;3.00;;;;;-144.76;100.00;60493.00;5069779;28;45823;-80
2022/09/18 05:10:41;;;;;;;;;2.67;2.67;;;;;-144.76;100.00;60493.00;5069869;28;52081;-80
2022/09/18 05:13:06;;;;;;;;;2.50;2.00;;;;;-144.76;100.00;60493.00;5069791;28;45045;-80
2022/09/18 05:15:32;;;;;;;;;2.50;2.00;;;;;-144.76;100.00;60493.00;5070146;28;45167;-80
2022/09/18 05:18:02;;;;;;;;;3.75;2.50;;;;;-144.76;100.00;60493.00;5070085;28;45176;-81
2022/09/18 05:20:28;;;;;;;;;3.00;2.00;;;;;-144.76;100.00;60493.00;5069888;28;45146;-80
2022/09/18 05:22:53;;;;;;;;;2.75;2.00;;;;;-144.76;100.00;60493.00;5054618;28;45045;-81
2022/09/18 05:25:19;;;;;;;;;4.00;3.00;;;;;-144.76;100.00;60493.00;5049653;28;45378;-80
2022/09/18 05:27:55;;;;;;;;;3.00;2.50;;;;;-144.76;100.00;60493.00;5048797;28;45055;-80
2022/09/18 05:30:21;;;;;;;;;1.50;1.50;;;;;-144.76;100.00;60493.00;5049241;28;45342;-79
2022/09/18 05:33:04;;;;;;;;;2.25;2.00;;;;;-144.76;100.00;60493.00;5049795;28;45120;-79
2022/09/18 05:35:31;;;;;;;;;2.75;2.25;;;;;-144.76;100.00;60493.00;5049701;28;45074;-81
2022/09/18 05:37:57;;;;;;;;;3.00;3.00;;;;;-144.76;100.00;60493.00;5049882;28;46041;-80
2022/09/18 05:40:25;;;;;;;;;3.00;3.00;;;;;-144.76;100.00;60493.00;5031551;28;45164;-81
2022/09/18 05:42:51;;;;;;;;;2.00;2.00;;;;;-144.76;100.00;60493.00;5049507;28;45217;-80
2022/09/18 05:45:18;;;;;;;;;4.00;3.00;;;;;-144.76;100.00;60493.00;5031472;28;45263;-81
2022/09/18 05:47:52;;;;;;;;;1.75;1.75;;;;;-144.76;100.00;60493.00;5045002;28;47633;-80
2022/09/18 05:50:17;;;;;;;;;2.00;2.00;;;;;-144.76;100.00;60493.00;5011974;28;46205;-79
2022/09/18 05:52:43;;;;;;;;;3.00;3.00;;;;;-144.76;100.00;60493.00;5013425;28;62123;-80
2022/09/18 05:55:08;;;;;;;;;3.00;3.00;;;;;-144.76;100.00;60493.00;5034326;28;44867;-79
2022/09/18 05:57:34;;;;;;;;;3.00;2.33;;;;;-144.76;100.00;60493.00;5032143;28;55805;-83
2022/09/18 05:59:59;;;;;;;;;4.00;3.00;;;;;-144.76;100.00;60493.00;5032817;28;58598;-80
2022/09/18 06:02:24;;;;;;;;;3.00;3.00;;;;;-144.76;100.00;60493.00;5030295;28;45252;-80
2022/09/18 06:04:49;;;;;;;;;2.67;2.67;;;;;-144.76;100.00;60493.00;5031104;28;45114;-79
2022/09/18 06:07:16;;;;;;;;;2.00;2.00;;;;;-144.76;100.00;60493.00;5026646;28;64913;-80
2022/09/18 06:09:41;;;;;;;;;2.00;2.00;;;;;-144.76;100.00;60493.00;5029608;28;45197;-80
2022/09/18 06:12:07;;;;;;;;;3.33;3.33;;;;;-144.76;100.00;60493.00;5039969;28;45198;-81
2022/09/18 06:14:32;;;;;;;;;2.00;2.00;;;;;-144.76;100.00;60493.00;5032930;28;45364;-80
2022/09/18 06:16:59;;;;;;;;;3.00;3.00;;;;;-144.76;100.00;60493.00;5028502;28;45230;-81
2022/09/18 06:19:24;;;;;;;;;2.25;2.25;;;;;-144.76;100.00;60493.00;5032617;28;45064;-81
2022/09/18 06:21:53;;;;;;;;;1.00;1.00;;;;;-144.76;100.00;60493.00;5035804;28;45085;-81
2022/09/18 06:24:18;;;;;;;;;2.00;2.00;;;;;-144.76;100.00;60493.00;5032315;28;45373;-80
2022/09/18 06:26:43;;;;;;;;;2.33;2.00;;;;;-144.76;100.00;60493.00;5025717;28;64951;-79
2022/09/18 06:29:08;;;;;;;;;2.50;2.00;;;;;-144.76;100.00;60493.00;5052356;28;45128;-79
2022/09/18 06:31:34;;;;;;;;;2.00;2.00;;;;;-144.76;100.00;60493.00;5050490;28;56986;-79
2022/09/18 06:33:59;;;;;;;;;2.67;2.67;;;;;-144.76;100.00;60493.00;5050107;28;51944;-79
2022/09/18 06:36:24;;;;;;;;;2.33;1.33;;;;;-144.76;100.00;60493.00;5049962;28;52407;-78
2022/09/18 06:38:50;;;;;;;;;3.00;2.33;;;;;-144.76;100.00;60493.00;5029764;28;60539;-81
2022/09/18 06:41:16;;;;;;;;;3.00;1.75;;;;;-144.76;100.00;60493.00;5030108;28;45160;-80
2022/09/18 06:43:41;;;;;;;;;1.50;1.00;;;;;-144.76;100.00;60493.00;5025053;28;45242;-81
2022/09/18 06:46:09;;;;;;;;;2.00;2.00;;;;;-144.76;100.00;60493.00;5029473;28;45150;-81
2022/09/18 06:48:35;;;;;;;;;2.00;1.25;;;;;-144.76;100.00;60493.00;5047250;28;45522;-81
2022/09/18 06:51:00;;;;;;;;;2.00;2.00;;;;;-144.76;100.00;60493.00;5038600;28;45117;-81
2022/09/18 06:53:26;;;;;;;;;2.25;2.25;;;;;-144.76;100.00;60493.00;5032239;28;45050;-80
2022/09/18 06:55:56;;;;;;;;;3.00;2.00;;;;;-144.76;100.00;60493.00;5035114;28;46297;-81
2022/09/18 06:58:21;;;;;;;;;2.75;2.00;;;;;-144.76;100.00;60493.00;5047384;28;45443;-80
2022/09/18 07:00:47;;;;;;;;;2.33;2.00;;;;;-144.76;100.00;60493.00;5043802;28;61347;-80
2022/09/18 07:03:12;;;;;;;;;3.00;2.00;;;;;-144.76;100.00;60493.00;5050751;28;45042;-81
2022/09/18 07:05:41;;;;;;;;;4.00;2.25;;;;;-144.76;100.00;60493.00;5049811;28;45712;-81
2022/09/18 07:08:08;;;;;;;;;2.00;2.00;;;;;-144.76;100.00;60493.00;5051803;28;45206;-80
2022/09/18 07:10:33;;;;;;;;;3.00;2.00;;;;;-144.76;100.00;60493.00;5051895;28;45054;-81
2022/09/18 07:13:00;;;;;;;;;2.50;2.50;;;;;-144.76;100.00;60493.00;5049477;28;45355;-80
2022/09/18 07:15:26;;;;;;;;;1.75;1.75;;;;;-144.76;100.00;60493.00;5049271;28;46306;-80
2022/09/18 07:17:55;;;;;;;;;1.50;1.50;;;;;-144.76;100.00;60493.00;5026564;28;46013;-80
2022/09/18 07:20:20;;;;;;;;;1.00;0.00;;;;;-144.76;100.00;60493.00;5021748;28;45524;-80
2022/09/18 07:22:53;;;;;;;;;2.50;2.00;;;;;-144.76;100.00;60493.00;5028814;28;45419;-80
2022/09/18 07:25:19;;;;;;;;;2.00;2.00;;;;;-144.76;100.00;60493.00;5011913;28;46097;-78
2022/09/18 07:27:44;;;;;;;;;2.00;2.00;;;;;-144.76;100.00;60493.00;5026195;28;45250;-78
2022/09/18 07:30:10;;;;;;;;;1.00;1.00;;;;;-144.76;100.00;60493.00;5030926;28;45227;-78
2022/09/18 07:32:36;;;;;;;;;1.50;1.50;;;;;-144.76;100.00;60493.00;5025775;28;45365;-78
2022/09/18 07:35:01;;;;;;;;;2.00;2.00;;;;;-144.76;100.00;60493.00;5031484;28;45719;-78
2022/09/18 07:37:26;;;;;;;;;2.33;1.67;;;;;-144.76;100.00;60493.00;5026720;28;56119;-78
2022/09/18 07:39:52;;;;;;;;;4.00;2.75;;;;;-144.76;100.00;60493.00;5029535;28;45083;-78
2022/09/18 07:42:18;;;;;;;;;2.00;2.00;;;;;-144.76;100.00;60493.00;5025821;28;45445;-78
2022/09/18 07:44:43;;;;;;;;;2.25;2.25;;;;;-144.76;100.00;60493.00;5031736;28;45599;-78
2022/09/18 07:47:08;;;;;;;;;2.67;2.67;;;;;-144.76;100.00;60493.00;5030907;28;45157;-78
2022/09/18 07:49:36;;;;;;;;;3.25;3.25;;;;;-144.76;100.00;60493.00;5031240;28;45129;-78
2022/09/18 07:52:01;;;;;;;;;2.50;2.00;;;;;-144.76;100.00;60493.00;5045317;28;45320;-78
2022/09/18 07:54:27;;;;;;;;;3.00;2.50;;;;;-144.76;100.00;60493.00;5051680;28;45037;-78
2022/09/18 07:56:52;;;;;;;;;4.33;3.00;;;;;-144.76;100.00;60493.00;5045784;28;60123;-78
2022/09/18 07:59:17;;;;;;;;;3.00;2.67;;;;;-144.76;100.00;60493.00;5033019;28;45191;-78
2022/09/18 08:01:43;;;;;;;;;2.00;2.00;;;;;-144.76;100.00;60493.00;5050926;28;55144;-78
2022/09/18 08:04:08;;;;;;;;;3.00;2.75;;;;;-144.76;100.00;60493.00;5051510;28;45071;-78
2022/09/18 08:06:34;;;;;;;;;2.00;2.00;;;;;-144.76;100.00;60493.00;5051219;28;44922;-78
2022/09/18 08:08:59;;;;;;;;;2.50;2.50;;;;;-144.76;100.00;60493.00;5051582;28;45102;-78
2022/09/18 08:11:24;;;;;;;;;2.00;2.00;;;;;-144.76;100.00;60493.00;5050991;28;45069;-78
2022/09/18 08:13:50;;;;;;;;;2.00;2.00;;;;;-144.76;100.00;60493.00;5030187;28;66777;-78
2022/09/18 08:16:15;;;;;;;;;2.25;2.00;;;;;-144.76;100.00;60493.00;5049830;28;44923;-78
2022/09/18 08:18:40;;;;;;;;;4.00;3.25;;;;;-144.76;100.00;60493.00;5051181;28;45141;-79
2022/09/18 08:21:06;;;;;;;;;2.00;2.00;;;;;-144.76;100.00;60493.00;5051229;28;44915;-78
2022/09/18 08:23:32;;;;;;;;;3.00;2.00;;;;;-144.76;100.00;60493.00;5049338;28;45637;-78
2022/09/18 08:26:03;;;;;;;;;2.00;2.00;;;;;-144.76;100.00;60493.00;5050986;28;45518;-78
2022/09/18 08:28:28;;;;;;;;;2.00;2.00;;;;;-144.76;100.00;60493.00;5049699;28;44963;-78
2022/09/18 08:30:56;;;;;;;;;2.00;2.00;;;;;-144.76;100.00;60493.00;5050526;28;45116;-78
2022/09/18 08:33:22;;;;;;;;;4.75;4.00;;;;;-144.76;100.00;60493.00;5050688;28;45066;-78
2022/09/18 08:35:48;;;;;;;;;4.00;3.50;;;;;-144.76;100.00;60493.00;5050667;28;45520;-78
2022/09/18 08:38:13;;;;;;;;;3.00;3.00;;;;;-144.76;100.00;60493.00;5051057;28;44958;-78
2022/09/18 08:40:53;;;;;;;;;2.00;2.00;;;;;-144.76;100.00;60493.00;5051179;28;44997;-78
2022/09/18 08:43:39;;;;;;;;;2.00;1.00;;;;;-144.76;100.00;60493.00;5048856;28;46333;-78
2022/09/18 08:46:11;;;;;;;;;2.75;2.75;;;;;-144.76;100.00;60493.00;5050763;28;45216;-78
2022/09/18 08:48:48;;;;;;;;;1.25;1.25;;;;;-144.76;100.00;60493.00;5050812;28;45061;-78
2022/09/18 08:51:24;;;;;;;;;3.00;3.00;;;;;-144.76;100.00;60493.00;5050499;28;44938;-78
2022/09/18 08:53:57;;;;;;;;;3.00;2.00;;;;;-144.76;100.00;60493.00;5050592;28;45089;-79
2022/09/18 08:56:24;;;;;;;;;2.50;2.00;;;;;-144.76;100.00;60493.00;5050598;28;45504;-78
2022/09/18 08:59:03;;;;;;;;;2.00;2.00;;;;;-144.76;100.00;60493.00;5048989;28;44927;-78
2022/09/18 09:01:46;;;;;;;;;3.00;3.00;;;;;-144.76;100.00;60493.00;5032344;28;45093;-78
2022/09/18 09:04:27;;;;;;;;;1.25;1.25;;;;;-144.76;100.00;60493.00;5051040;28;46044;-78
2022/09/18 09:07:21;;;;;;;;;2.00;1.75;;;;;-144.76;100.00;60493.00;5050609;28;45105;-78
2022/09/18 09:10:03;;;;;;;;;2.00;2.00;;;;;-144.76;100.00;60493.00;5018792;28;45363;-79
2022/09/18 09:12:37;;;;;;;;;2.00;1.75;;;;;-144.76;100.00;60493.00;5044402;28;45196;-79
2022/09/18 09:15:17;;;;;;;;;1.00;1.00;;;;;-144.76;100.00;60493.00;5029412;28;47700;-79
2022/09/18 09:18:18;;;;;;;;;1.00;1.00;;;;;-144.76;100.00;60493.00;5050446;28;45060;-79
2022/09/18 09:20:50;;;;;;;;;1.25;1.25;;;;;-144.76;100.00;60493.00;5029397;28;45375;-79
2022/09/18 09:23:34;;;;;;;;;1.50;1.00;;;;;-144.76;100.00;60493.00;5050396;28;45337;-79
2022/09/18 09:26:05;;;;;;;;;2.00;2.00;;;;;-144.76;100.00;60493.00;5043159;28;45920;-79
2022/09/18 09:28:59;;;;;;;;;1.00;1.00;;;;;-144.76;100.00;60493.00;5034919;28;45472;-80
2022/09/18 09:31:31;;;;;;;;;1.00;1.00;;;;;-144.76;100.00;60493.00;5048345;28;45037;-79
2022/09/18 09:34:06;;;;;;;;;1.00;1.00;;;;;-144.76;100.00;60493.00;5042075;28;45169;-78
2022/09/18 09:36:35;;;;;;;;;1.00;1.00;;;;;-144.76;100.00;60493.00;5056079;28;45720;-79
2022/09/18 09:39:06;;;;;;;;;1.75;1.00;;;;;-144.76;100.00;60493.00;5055822;28;46104;-80
2022/09/18 09:41:37;;;;;;;;;1.75;1.50;;;;;-144.76;100.00;60493.00;5055517;28;45415;-79
2022/09/18 09:44:26;;;;;;;;;0.75;0.75;;;;;-144.76;100.00;60493.00;5055379;28;47141;-79
2022/09/18 09:47:34;;;;;;;;;1.00;1.00;;;;;-144.76;100.00;60493.00;5055870;28;46663;-79
2022/09/18 09:50:11;;;;;;;;;1.75;1.75;;;;;-144.76;100.00;60493.00;5055434;28;45419;-79
2022/09/18 09:52:41;;;;;;;;;2.00;2.00;;;;;-144.76;100.00;60493.00;5037300;28;45302;-79
2022/09/18 09:55:12;;;;;;;;;1.00;1.00;;;;;-144.76;100.00;60493.00;5055710;28;45474;-79
2022/09/18 09:58:22;;;;;;;;;1.00;1.00;;;;;-144.76;100.00;60493.00;5054911;28;46334;-79
2022/09/18 10:01:05;;;;;;;;;2.00;1.75;;;;;-144.76;100.00;60493.00;5050984;28;45839;-79
2022/09/18 10:04:05;;;;;;;;;1.00;1.00;;;;;-144.76;100.00;60493.00;5055551;28;45467;-77
2022/09/18 10:06:35;;;;;;;;;1.25;1.25;;;;;-144.76;100.00;60493.00;5055546;28;45403;-79
2022/09/18 10:09:11;;;;;;;;;0.00;0.00;;;;;-144.76;100.00;60493.00;5055373;28;46423;-79
2022/09/18 10:11:41;;;;;;;;;1.00;1.00;;;;;-144.76;100.00;60493.00;5055274;28;45887;-79
2022/09/18 10:14:17;;;;;;;;;1.50;1.50;;;;;-144.76;100.00;60493.00;5055108;28;45458;-79
2022/09/18 10:16:47;;;;;;;;;2.00;2.00;;;;;-144.76;100.00;60493.00;5055254;28;45385;-78
2022/09/18 10:19:17;;;;;;;;;1.00;1.00;;;;;-144.76;100.00;60493.00;5054874;28;45656;-79
2022/09/18 10:21:44;;;;;;;;;1.25;1.25;;;;;-144.76;100.00;60493.00;5037010;28;45448;-79
2022/09/18 10:24:51;;;;;;;;;1.75;1.00;;;;;-144.76;100.00;60493.00;5055221;28;45430;-79
2022/09/18 10:27:16;;;;;;;;;1.25;1.00;;;;;-144.76;100.00;60493.00;4972426;28;45545;-79
2022/09/18 10:29:42;;;;;;;;;2.75;2.00;;;;;-144.76;100.00;60493.00;4972203;28;45556;-80
2022/09/18 10:32:11;;;;;;;;;1.00;1.00;;;;;-144.76;100.00;60493.00;5011494;28;45529;-79
2022/09/18 10:34:46;;;;;;;;;0.00;0.00;;;;;-144.76;100.00;60493.00;5054941;28;45353;-79
2022/09/18 10:37:35;;;;;;;;;1.50;1.50;;;;;-144.76;100.00;60493.00;5054878;28;45637;-79
2022/09/18 10:40:01;;;;;;;;;2.25;2.25;;;;;-144.76;100.00;60493.00;5053861;28;46303;-79
2022/09/18 10:42:36;;;;;;;;;3.00;3.00;;;;;-144.76;100.00;60493.00;5036157;28;45849;-79
2022/09/18 10:45:19;;;;;;;;;2.00;2.00;;;;;-144.76;100.00;60493.00;5054882;28;45454;-79
2022/09/18 10:47:45;;;;;;;;;2.25;2.00;;;;;-144.76;100.00;60493.00;5054818;28;45534;-79
2022/09/18 10:50:10;;;;;;;;;2.75;2.75;;;;;-144.76;100.00;60493.00;5054491;28;45557;-78
2022/09/18 10:52:48;;;;;;;;;1.67;1.67;;;;;-144.76;100.00;60493.00;5054815;28;45568;-79
2022/09/18 10:55:19;;;;;;;;;3.25;2.00;;;;;-144.76;100.00;60493.00;5054461;28;45389;-79
2022/09/18 10:57:47;;;;;;;;;1.00;1.00;;;;;-144.76;100.00;60493.00;5054430;28;45446;-78
2022/09/18 11:00:18;;;;;;;;;2.00;1.00;;;;;-144.76;100.00;60493.00;5054406;28;46237;-79
2022/09/18 11:02:54;;;;;;;;;2.00;2.00;;;;;-144.76;100.00;60493.00;5054712;28;45893;-79
2022/09/18 11:05:32;;;;;;;;;1.00;1.00;;;;;-144.76;100.00;60493.00;5054582;28;45458;-79
2022/09/18 11:08:00;;;;;;;;;1.75;1.00;;;;;-144.76;100.00;60493.00;5054589;28;45594;-79
2022/09/18 11:10:28;;;;;;;;;1.25;1.25;;;;;-144.76;100.00;60493.00;5054196;28;45701;-79
2022/09/18 11:12:56;;;;;;;;;1.25;1.00;;;;;-144.76;100.00;60493.00;5054029;28;45342;-79
2022/09/18 11:15:26;;;;;;;;;2.00;2.00;;;;;-144.76;100.00;60493.00;5054339;28;45513;-79
2022/09/18 11:17:54;;;;;;;;;3.00;2.25;;;;;-144.76;100.00;60493.00;5054365;28;45492;-79
2022/09/18 11:20:25;;;;;;;;;2.25;2.25;;;;;-144.76;100.00;60493.00;5054208;28;46275;-79
2022/09/18 11:22:52;;;;;;;;;3.00;3.00;;;;;-144.76;100.00;60493.00;5054414;28;45597;-80
2022/09/18 11:25:26;;;;;;;;;2.00;2.00;;;;;-144.76;100.00;60493.00;5054394;28;45341;-79